sensor_id;sensor_type;location;lat;lon;timestamp;temperature;humidity
9329;DHT22;4703;48.748;19.142;2023-04-01T00:01:47;11.40;99.90
9329;DHT22;4703;48.748;19.142;2023-04-01T00:04:14;11.90;99.90
9329;DHT22;4703;48.748;19.142;2023-04-01T00:06:42;12.20;99.90
9329;DHT22;4703;48.748;19.142;2023-04-01T00:09:09;12.90;99.90
9329;DHT22;4703;48.748;19.142;2023-04-01T00:11:36;12.10;99.90
9329;DHT22;4703;48.748;19.142;2023-04-01T00:14:04;11.30;99.90
9329;DHT22;4703;48.748;19.142;2023-04-01T00:16:31;10.70;99.90
9329;DHT22;4703;48.748;19.142;2023-04-01T00:18:58;12.50;99.90
9329;DHT22;4703;48.748;19.142;2023-04-01T00:21:26;12.30;99.90
9329;DHT22;4703;48.748;19.142;2023-04-01T00:23:53;11.20;99.90
9329;DHT22;4703;48.748;19.142;2023-04-01T00:26:20;12.30;99.90
9329;DHT22;4703;48.748;19.142;2023-04-01T00:28:48;10.60;99.90
9329;DHT22;4703;48.748;19.142;2023-04-01T00:31:16;12.00;99.90
9329;DHT22;4703;48.748;19.142;2023-04-01T00:33:43;12.00;99.90
9329;DHT22;4703;48.748;19.142;2023-04-01T00:36:17;12.20;99.90
9329;DHT22;4703;48.748;19.142;2023-04-01T00:38:45;10.50;99.90
9329;DHT22;4703;48.748;19.142;2023-04-01T00:41:14;10.40;99.90
9329;DHT22;4703;48.748;19.142;2023-04-01T00:43:46;12.20;99.90
9329;DHT22;4703;48.748;19.142;2023-04-01T00:46:14;12.40;99.90
9329;DHT22;4703;48.748;19.142;2023-04-01T00:48:53;12.60;99.90
9329;DHT22;4703;48.748;19.142;2023-04-01T00:51:24;10.40;99.90
9329;DHT22;4703;48.748;19.142;2023-04-01T00:53:54;10.40;99.90
9329;DHT22;4703;48.748;19.142;2023-04-01T00:56:27;11.10;99.90
9329;DHT22;4703;48.748;19.142;2023-04-01T00:59:00;12.00;99.90
9329;DHT22;4703;48.748;19.142;2023-04-01T01:01:30;11.80;99.90
9329;DHT22;4703;48.748;19.142;2023-04-01T01:03:58;10.40;99.90
9329;DHT22;4703;48.748;19.142;2023-04-01T01:06:57;12.80;99.90
9329;DHT22;4703;48.748;19.142;2023-04-01T01:12:39;10.30;99.90
9329;DHT22;4703;48.748;19.142;2023-04-01T01:16:14;10.30;99.90
9329;DHT22;4703;48.748;19.142;2023-04-01T01:18:18;11.30;99.90
9329;DHT22;4703;48.748;19.142;2023-04-01T01:24:21;10.20;99.90
9329;DHT22;4703;48.748;19.142;2023-04-01T01:27:04;10.20;99.90
9329;DHT22;4703;48.748;19.142;2023-04-01T01:29:55;10.10;99.90
9329;DHT22;4703;48.748;19.142;2023-04-01T01:33:01;10.00;99.90
9329;DHT22;4703;48.748;19.142;2023-04-01T01:35:56;10.00;99.90
9329;DHT22;4703;48.748;19.142;2023-04-01T01:38:27;10.00;99.90
9329;DHT22;4703;48.748;19.142;2023-04-01T01:40:58;10.00;99.90
9329;DHT22;4703;48.748;19.142;2023-04-01T01:43:41;9.90;99.90
9329;DHT22;4703;48.748;19.142;2023-04-01T01:46:12;9.90;99.90
9329;DHT22;4703;48.748;19.142;2023-04-01T01:48:42;11.70;99.90
9329;DHT22;4703;48.748;19.142;2023-04-01T01:51:10;9.80;99.90
9329;DHT22;4703;48.748;19.142;2023-04-01T01:53:38;10.70;99.90
9329;DHT22;4703;48.748;19.142;2023-04-01T01:56:05;12.10;99.90
9329;DHT22;4703;48.748;19.142;2023-04-01T01:58:43;9.80;99.90
9329;DHT22;4703;48.748;19.142;2023-04-01T02:01:24;10.60;99.90
9329;DHT22;4703;48.748;19.142;2023-04-01T02:03:53;9.90;99.90
9329;DHT22;4703;48.748;19.142;2023-04-01T02:06:24;10.30;99.90
9329;DHT22;4703;48.748;19.142;2023-04-01T02:09:00;12.20;99.90
9329;DHT22;4703;48.748;19.142;2023-04-01T02:12:33;9.80;99.90
9329;DHT22;4703;48.748;19.142;2023-04-01T02:14:53;9.80;99.90
9329;DHT22;4703;48.748;19.142;2023-04-01T02:17:24;9.70;99.90
9329;DHT22;4703;48.748;19.142;2023-04-01T02:19:59;9.70;99.90
9329;DHT22;4703;48.748;19.142;2023-04-01T02:22:31;12.00;99.90
9329;DHT22;4703;48.748;19.142;2023-04-01T02:25:12;9.70;99.90
9329;DHT22;4703;48.748;19.142;2023-04-01T02:27:42;11.60;99.90
9329;DHT22;4703;48.748;19.142;2023-04-01T02:30:12;11.10;99.90
9329;DHT22;4703;48.748;19.142;2023-04-01T02:32:40;9.70;99.90
9329;DHT22;4703;48.748;19.142;2023-04-01T02:35:14;10.50;99.90
9329;DHT22;4703;48.748;19.142;2023-04-01T02:37:43;9.70;99.90
9329;DHT22;4703;48.748;19.142;2023-04-01T02:40:13;9.70;99.90
9329;DHT22;4703;48.748;19.142;2023-04-01T02:42:41;11.10;99.90
9329;DHT22;4703;48.748;19.142;2023-04-01T02:45:09;12.50;99.90
9329;DHT22;4703;48.748;19.142;2023-04-01T02:47:37;9.60;99.90
9329;DHT22;4703;48.748;19.142;2023-04-01T02:50:05;12.50;99.90
9329;DHT22;4703;48.748;19.142;2023-04-01T02:52:32;9.60;99.90
9329;DHT22;4703;48.748;19.142;2023-04-01T02:55:00;12.00;99.90
9329;DHT22;4703;48.748;19.142;2023-04-01T02:57:28;12.40;99.90
9329;DHT22;4703;48.748;19.142;2023-04-01T02:59:56;9.90;99.90
9329;DHT22;4703;48.748;19.142;2023-04-01T03:02:23;9.90;99.90
9329;DHT22;4703;48.748;19.142;2023-04-01T03:04:50;11.80;99.90
9329;DHT22;4703;48.748;19.142;2023-04-01T03:07:17;9.60;99.90
9329;DHT22;4703;48.748;19.142;2023-04-01T03:09:44;9.60;99.90
9329;DHT22;4703;48.748;19.142;2023-04-01T03:12:11;10.30;99.90
9329;DHT22;4703;48.748;19.142;2023-04-01T03:14:38;9.70;99.90
9329;DHT22;4703;48.748;19.142;2023-04-01T03:17:05;11.30;99.90
9329;DHT22;4703;48.748;19.142;2023-04-01T03:19:33;11.40;99.90
9329;DHT22;4703;48.748;19.142;2023-04-01T03:22:00;12.20;99.90
9329;DHT22;4703;48.748;19.142;2023-04-01T03:24:27;12.20;99.90
9329;DHT22;4703;48.748;19.142;2023-04-01T03:26:54;11.90;99.90
9329;DHT22;4703;48.748;19.142;2023-04-01T03:29:21;10.50;99.90
9329;DHT22;4703;48.748;19.142;2023-04-01T03:31:48;11.70;99.90
9329;DHT22;4703;48.748;19.142;2023-04-01T03:34:15;10.20;99.90
9329;DHT22;4703;48.748;19.142;2023-04-01T03:36:42;9.80;99.90
9329;DHT22;4703;48.748;19.142;2023-04-01T03:39:09;11.50;99.90
9329;DHT22;4703;48.748;19.142;2023-04-01T03:41:36;11.80;99.90
9329;DHT22;4703;48.748;19.142;2023-04-01T03:44:05;11.80;99.90
9329;DHT22;4703;48.748;19.142;2023-04-01T03:46:32;12.20;99.90
9329;DHT22;4703;48.748;19.142;2023-04-01T03:48:59;12.10;99.90
9329;DHT22;4703;48.748;19.142;2023-04-01T03:51:26;9.60;99.90
9329;DHT22;4703;48.748;19.142;2023-04-01T03:53:53;9.60;99.90
9329;DHT22;4703;48.748;19.142;2023-04-01T03:56:20;12.30;99.90
9329;DHT22;4703;48.748;19.142;2023-04-01T03:58:47;12.00;99.90
9329;DHT22;4703;48.748;19.142;2023-04-01T04:01:19;11.30;99.90
9329;DHT22;4703;48.748;19.142;2023-04-01T04:03:48;12.30;99.90
9329;DHT22;4703;48.748;19.142;2023-04-01T04:06:18;10.30;99.90
9329;DHT22;4703;48.748;19.142;2023-04-01T04:08:45;11.60;99.90
9329;DHT22;4703;48.748;19.142;2023-04-01T04:11:12;11.90;99.90
9329;DHT22;4703;48.748;19.142;2023-04-01T04:13:40;11.60;99.90
9329;DHT22;4703;48.748;19.142;2023-04-01T04:16:07;11.40;99.90
9329;DHT22;4703;48.748;19.142;2023-04-01T04:18:36;11.20;99.90
9329;DHT22;4703;48.748;19.142;2023-04-01T04:21:04;9.50;99.90
9329;DHT22;4703;48.748;19.142;2023-04-01T04:23:32;9.50;99.90
9329;DHT22;4703;48.748;19.142;2023-04-01T04:26:05;9.50;99.90
9329;DHT22;4703;48.748;19.142;2023-04-01T04:28:33;11.00;99.90
9329;DHT22;4703;48.748;19.142;2023-04-01T04:31:01;10.20;99.90
9329;DHT22;4703;48.748;19.142;2023-04-01T04:33:28;11.30;99.90
9329;DHT22;4703;48.748;19.142;2023-04-01T04:35:57;11.30;99.90
9329;DHT22;4703;48.748;19.142;2023-04-01T04:38:25;11.30;99.90
9329;DHT22;4703;48.748;19.142;2023-04-01T04:40:52;10.90;99.90
9329;DHT22;4703;48.748;19.142;2023-04-01T04:43:19;11.70;99.90
9329;DHT22;4703;48.748;19.142;2023-04-01T04:45:46;11.90;99.90
9329;DHT22;4703;48.748;19.142;2023-04-01T04:48:15;10.20;99.90
9329;DHT22;4703;48.748;19.142;2023-04-01T04:50:48;11.00;99.90
9329;DHT22;4703;48.748;19.142;2023-04-01T04:53:18;12.00;99.90
9329;DHT22;4703;48.748;19.142;2023-04-01T04:55:47;10.50;99.90
9329;DHT22;4703;48.748;19.142;2023-04-01T04:58:15;11.00;99.90
9329;DHT22;4703;48.748;19.142;2023-04-01T05:00:43;9.60;99.90
9329;DHT22;4703;48.748;19.142;2023-04-01T05:03:11;11.90;99.90
9329;DHT22;4703;48.748;19.142;2023-04-01T05:05:38;11.30;99.90
9329;DHT22;4703;48.748;19.142;2023-04-01T05:08:05;9.60;99.90
9329;DHT22;4703;48.748;19.142;2023-04-01T05:10:33;11.50;99.90
9329;DHT22;4703;48.748;19.142;2023-04-01T05:13:00;10.60;99.90
9329;DHT22;4703;48.748;19.142;2023-04-01T05:15:26;9.60;99.90
9329;DHT22;4703;48.748;19.142;2023-04-01T05:17:53;9.60;99.90
9329;DHT22;4703;48.748;19.142;2023-04-01T05:20:20;11.50;99.90
9329;DHT22;4703;48.748;19.142;2023-04-01T05:22:47;9.70;99.90
9329;DHT22;4703;48.748;19.142;2023-04-01T05:25:15;10.80;99.90
9329;DHT22;4703;48.748;19.142;2023-04-01T05:27:42;11.00;99.90
9329;DHT22;4703;48.748;19.142;2023-04-01T05:30:09;9.70;99.90
9329;DHT22;4703;48.748;19.142;2023-04-01T05:32:37;9.80;99.90
9329;DHT22;4703;48.748;19.142;2023-04-01T05:35:04;9.80;99.90
9329;DHT22;4703;48.748;19.142;2023-04-01T05:37:34;9.80;99.90
9329;DHT22;4703;48.748;19.142;2023-04-01T05:40:02;9.80;99.90
9329;DHT22;4703;48.748;19.142;2023-04-01T05:42:29;9.80;99.90
9329;DHT22;4703;48.748;19.142;2023-04-01T05:44:58;11.90;99.90
9329;DHT22;4703;48.748;19.142;2023-04-01T05:47:25;9.90;99.90
9329;DHT22;4703;48.748;19.142;2023-04-01T05:49:52;9.90;99.90
9329;DHT22;4703;48.748;19.142;2023-04-01T05:52:19;9.90;99.90
9329;DHT22;4703;48.748;19.142;2023-04-01T05:54:46;11.00;99.90
9329;DHT22;4703;48.748;19.142;2023-04-01T05:57:13;10.00;99.90
9329;DHT22;4703;48.748;19.142;2023-04-01T05:59:40;11.80;99.90
9329;DHT22;4703;48.748;19.142;2023-04-01T06:02:08;11.20;99.90
9329;DHT22;4703;48.748;19.142;2023-04-01T06:04:40;11.50;99.90
9329;DHT22;4703;48.748;19.142;2023-04-01T06:07:15;11.20;99.90
9329;DHT22;4703;48.748;19.142;2023-04-01T06:09:44;10.20;99.90
9329;DHT22;4703;48.748;19.142;2023-04-01T06:15:32;10.20;99.90
9329;DHT22;4703;48.748;19.142;2023-04-01T06:18:19;10.30;99.90
9329;DHT22;4703;48.748;19.142;2023-04-01T06:29:56;10.30;99.90
9329;DHT22;4703;48.748;19.142;2023-04-01T06:32:42;10.30;99.90
9329;DHT22;4703;48.748;19.142;2023-04-01T06:41:06;10.50;99.90
9329;DHT22;4703;48.748;19.142;2023-04-01T06:44:06;10.60;99.90
9329;DHT22;4703;48.748;19.142;2023-04-01T06:49:52;10.70;99.90
9329;DHT22;4703;48.748;19.142;2023-04-01T06:55:00;12.10;99.90
9329;DHT22;4703;48.748;19.142;2023-04-01T06:57:41;13.00;99.90
9329;DHT22;4703;48.748;19.142;2023-04-01T07:00:35;11.00;99.90
9329;DHT22;4703;48.748;19.142;2023-04-01T07:03:33;12.40;99.90
9329;DHT22;4703;48.748;19.142;2023-04-01T07:06:05;11.10;99.90
9329;DHT22;4703;48.748;19.142;2023-04-01T07:08:38;11.10;99.90
9329;DHT22;4703;48.748;19.142;2023-04-01T07:11:10;11.70;99.90
9329;DHT22;4703;48.748;19.142;2023-04-01T07:13:52;11.00;99.90
9329;DHT22;4703;48.748;19.142;2023-04-01T07:24:49;11.20;99.90
9329;DHT22;4703;48.748;19.142;2023-04-01T07:27:18;11.20;99.90
9329;DHT22;4703;48.748;19.142;2023-04-01T07:29:45;12.10;99.90
9329;DHT22;4703;48.748;19.142;2023-04-01T07:44:35;11.30;99.90
9329;DHT22;4703;48.748;19.142;2023-04-01T07:50:34;11.30;99.80
9329;DHT22;4703;48.748;19.142;2023-04-01T07:54:03;11.30;99.90
9329;DHT22;4703;48.748;19.142;2023-04-01T08:10:43;11.80;99.90
9329;DHT22;4703;48.748;19.142;2023-04-01T08:13:53;12.80;99.90
9329;DHT22;4703;48.748;19.142;2023-04-01T08:17:02;12.10;99.60
9329;DHT22;4703;48.748;19.142;2023-04-01T08:22:21;12.70;99.90
9329;DHT22;4703;48.748;19.142;2023-04-01T08:24:56;12.90;99.20
9329;DHT22;4703;48.748;19.142;2023-04-01T08:27:35;13.10;98.50
9329;DHT22;4703;48.748;19.142;2023-04-01T08:30:23;13.30;98.30
9329;DHT22;4703;48.748;19.142;2023-04-01T08:35:31;13.30;97.20
9329;DHT22;4703;48.748;19.142;2023-04-01T08:38:14;12.20;96.30
9329;DHT22;4703;48.748;19.142;2023-04-01T08:41:19;13.40;96.80
9329;DHT22;4703;48.748;19.142;2023-04-01T08:50:50;13.20;96.50
9329;DHT22;4703;48.748;19.142;2023-04-01T08:54:21;13.20;96.30
9329;DHT22;4703;48.748;19.142;2023-04-01T09:03:08;12.80;95.70
9329;DHT22;4703;48.748;19.142;2023-04-01T09:17:25;13.80;97.20
9329;DHT22;4703;48.748;19.142;2023-04-01T09:20:25;12.60;96.30
9329;DHT22;4703;48.748;19.142;2023-04-01T09:23:15;12.50;96.40
9329;DHT22;4703;48.748;19.142;2023-04-01T09:25:58;12.60;96.80
9329;DHT22;4703;48.748;19.142;2023-04-01T09:41:03;13.10;97.00
9329;DHT22;4703;48.748;19.142;2023-04-01T09:58:14;13.80;95.10
9329;DHT22;4703;48.748;19.142;2023-04-01T10:13:51;13.20;95.30
9329;DHT22;4703;48.748;19.142;2023-04-01T10:23:17;13.40;95.50
9329;DHT22;4703;48.748;19.142;2023-04-01T10:48:09;13.80;95.60
9329;DHT22;4703;48.748;19.142;2023-04-01T10:51:10;13.90;95.60
9329;DHT22;4703;48.748;19.142;2023-04-01T10:56:57;13.80;95.50
9329;DHT22;4703;48.748;19.142;2023-04-01T11:12:17;13.70;95.60
9329;DHT22;4703;48.748;19.142;2023-04-01T11:21:27;13.60;95.30
9329;DHT22;4703;48.748;19.142;2023-04-01T11:24:30;13.50;95.40
9329;DHT22;4703;48.748;19.142;2023-04-01T11:30:05;13.20;95.70
9329;DHT22;4703;48.748;19.142;2023-04-01T11:41:32;12.90;97.60
9329;DHT22;4703;48.748;19.142;2023-04-01T11:44:24;12.80;98.20
9329;DHT22;4703;48.748;19.142;2023-04-01T11:49:42;13.00;99.40
9329;DHT22;4703;48.748;19.142;2023-04-01T12:04:53;14.20;99.90
9329;DHT22;4703;48.748;19.142;2023-04-01T12:10:50;15.20;99.90
9329;DHT22;4703;48.748;19.142;2023-04-01T12:30:40;14.90;95.30
9329;DHT22;4703;48.748;19.142;2023-04-01T12:36:31;14.40;95.10
9329;DHT22;4703;48.748;19.142;2023-04-01T12:45:34;13.90;96.80
9329;DHT22;4703;48.748;19.142;2023-04-01T12:48:57;13.80;96.60
9329;DHT22;4703;48.748;19.142;2023-04-01T12:51:45;13.60;96.00
9329;DHT22;4703;48.748;19.142;2023-04-01T13:00:24;13.30;96.50
9329;DHT22;4703;48.748;19.142;2023-04-01T13:06:15;13.10;97.00
9329;DHT22;4703;48.748;19.142;2023-04-01T13:09:03;13.00;97.30
9329;DHT22;4703;48.748;19.142;2023-04-01T13:26:36;13.20;97.30
9329;DHT22;4703;48.748;19.142;2023-04-01T13:29:56;16.10;99.20
9329;DHT22;4703;48.748;19.142;2023-04-01T13:32:49;13.30;97.90
9329;DHT22;4703;48.748;19.142;2023-04-01T13:38:52;13.50;97.60
9329;DHT22;4703;48.748;19.142;2023-04-01T13:42:11;13.60;96.90
9329;DHT22;4703;48.748;19.142;2023-04-01T13:44:54;13.60;96.70
9329;DHT22;4703;48.748;19.142;2023-04-01T13:50:58;13.90;96.80
9329;DHT22;4703;48.748;19.142;2023-04-01T13:57:13;14.00;96.30
9329;DHT22;4703;48.748;19.142;2023-04-01T14:00:17;14.10;96.50
9329;DHT22;4703;48.748;19.142;2023-04-01T14:11:39;14.00;96.30
9329;DHT22;4703;48.748;19.142;2023-04-01T14:14:46;13.90;95.90
9329;DHT22;4703;48.748;19.142;2023-04-01T14:20:41;13.80;96.00
9329;DHT22;4703;48.748;19.142;2023-04-01T14:26:22;13.80;96.40
9329;DHT22;4703;48.748;19.142;2023-04-01T14:32:28;13.90;96.10
9329;DHT22;4703;48.748;19.142;2023-04-01T14:35:49;14.00;96.50
9329;DHT22;4703;48.748;19.142;2023-04-01T14:50:21;13.80;95.80
9329;DHT22;4703;48.748;19.142;2023-04-01T14:55:58;13.60;95.30
9329;DHT22;4703;48.748;19.142;2023-04-01T14:58:46;13.30;95.60
9329;DHT22;4703;48.748;19.142;2023-04-01T15:01:40;13.20;95.90
9329;DHT22;4703;48.748;19.142;2023-04-01T15:07:51;14.40;97.30
9329;DHT22;4703;48.748;19.142;2023-04-01T15:13:50;12.90;96.50
9329;DHT22;4703;48.748;19.142;2023-04-01T15:19:43;12.70;97.50
9329;DHT22;4703;48.748;19.142;2023-04-01T15:22:36;12.60;98.50
9329;DHT22;4703;48.748;19.142;2023-04-01T15:31:29;14.70;97.60
9329;DHT22;4703;48.748;19.142;2023-04-01T15:37:10;17.40;94.10
9329;DHT22;4703;48.748;19.142;2023-04-01T15:40:35;18.60;91.00
9329;DHT22;4703;48.748;19.142;2023-04-01T15:46:09;20.30;79.10
9329;DHT22;4703;48.748;19.142;2023-04-01T15:49:35;20.60;74.70
9329;DHT22;4703;48.748;19.142;2023-04-01T15:52:16;20.40;73.50
9329;DHT22;4703;48.748;19.142;2023-04-01T16:15:34;15.70;84.10
9329;DHT22;4703;48.748;19.142;2023-04-01T16:21:06;15.00;85.80
9329;DHT22;4703;48.748;19.142;2023-04-01T16:23:46;14.70;87.70
9329;DHT22;4703;48.748;19.142;2023-04-01T16:26:26;14.40;89.00
9329;DHT22;4703;48.748;19.142;2023-04-01T16:32:23;14.00;90.80
9329;DHT22;4703;48.748;19.142;2023-04-01T16:35:19;13.80;91.80
9329;DHT22;4703;48.748;19.142;2023-04-01T16:37:56;13.60;92.50
9329;DHT22;4703;48.748;19.142;2023-04-01T16:41:36;13.50;93.10
9329;DHT22;4703;48.748;19.142;2023-04-01T16:43:51;13.40;93.60
9329;DHT22;4703;48.748;19.142;2023-04-01T16:46:45;13.30;94.00
9329;DHT22;4703;48.748;19.142;2023-04-01T16:49:41;15.70;95.70
9329;DHT22;4703;48.748;19.142;2023-04-01T16:55:00;13.20;95.60
9329;DHT22;4703;48.748;19.142;2023-04-01T16:58:06;12.90;96.10
9329;DHT22;4703;48.748;19.142;2023-04-01T17:00:39;12.90;98.00
9329;DHT22;4703;48.748;19.142;2023-04-01T17:05:48;12.60;99.20
9329;DHT22;4703;48.748;19.142;2023-04-01T17:11:18;12.40;99.90
9329;DHT22;4703;48.748;19.142;2023-04-01T17:16:49;12.30;99.90
9329;DHT22;4703;48.748;19.142;2023-04-01T17:32:11;11.90;99.90
9329;DHT22;4703;48.748;19.142;2023-04-01T17:41:25;11.70;99.90
9329;DHT22;4703;48.748;19.142;2023-04-01T17:44:05;11.50;99.90
9329;DHT22;4703;48.748;19.142;2023-04-01T17:46:59;11.50;99.90
9329;DHT22;4703;48.748;19.142;2023-04-01T17:49:42;11.50;99.90
9329;DHT22;4703;48.748;19.142;2023-04-01T17:52:39;11.70;99.90
9329;DHT22;4703;48.748;19.142;2023-04-01T17:55:30;11.40;99.90
9329;DHT22;4703;48.748;19.142;2023-04-01T17:58:19;12.50;99.90
9329;DHT22;4703;48.748;19.142;2023-04-01T18:01:34;11.20;99.90
9329;DHT22;4703;48.748;19.142;2023-04-01T18:04:17;11.20;99.90
9329;DHT22;4703;48.748;19.142;2023-04-01T18:12:56;12.10;99.90
9329;DHT22;4703;48.748;19.142;2023-04-01T18:15:53;13.40;99.90
9329;DHT22;4703;48.748;19.142;2023-04-01T18:21:21;10.90;99.90
9329;DHT22;4703;48.748;19.142;2023-04-01T18:27:53;10.70;99.90
9329;DHT22;4703;48.748;19.142;2023-04-01T18:30:38;10.60;99.90
9329;DHT22;4703;48.748;19.142;2023-04-01T18:33:18;11.70;99.90
9329;DHT22;4703;48.748;19.142;2023-04-01T18:39:22;10.40;99.90
9329;DHT22;4703;48.748;19.142;2023-04-01T18:54:31;10.20;99.90
9329;DHT22;4703;48.748;19.142;2023-04-01T18:57:04;10.30;99.90
9329;DHT22;4703;48.748;19.142;2023-04-01T18:59:43;10.30;99.90
9329;DHT22;4703;48.748;19.142;2023-04-01T19:02:40;10.20;99.90
9329;DHT22;4703;48.748;19.142;2023-04-01T19:05:37;10.20;99.90
9329;DHT22;4703;48.748;19.142;2023-04-01T19:08:19;10.30;99.90
9329;DHT22;4703;48.748;19.142;2023-04-01T19:17:10;10.30;99.90
9329;DHT22;4703;48.748;19.142;2023-04-01T19:26:09;10.00;99.90
9329;DHT22;4703;48.748;19.142;2023-04-01T19:32:03;10.00;99.90
9329;DHT22;4703;48.748;19.142;2023-04-01T19:35:08;9.90;99.90
9329;DHT22;4703;48.748;19.142;2023-04-01T19:37:43;9.80;99.90
9329;DHT22;4703;48.748;19.142;2023-04-01T19:40:22;9.70;99.90
9329;DHT22;4703;48.748;19.142;2023-04-01T19:49:06;9.50;99.90
9329;DHT22;4703;48.748;19.142;2023-04-01T19:57:15;9.60;99.90
9329;DHT22;4703;48.748;19.142;2023-04-01T20:11:57;9.00;99.90
9329;DHT22;4703;48.748;19.142;2023-04-01T20:14:36;8.90;99.90
9329;DHT22;4703;48.748;19.142;2023-04-01T20:20:31;8.80;99.90
9329;DHT22;4703;48.748;19.142;2023-04-01T20:26:32;8.70;99.90
9329;DHT22;4703;48.748;19.142;2023-04-01T20:38:05;8.60;99.90
9329;DHT22;4703;48.748;19.142;2023-04-01T20:40:40;8.70;99.90
9329;DHT22;4703;48.748;19.142;2023-04-01T20:49:47;8.50;99.90
9329;DHT22;4703;48.748;19.142;2023-04-01T21:18:59;8.20;99.90
9329;DHT22;4703;48.748;19.142;2023-04-01T21:21:50;8.30;99.90
9329;DHT22;4703;48.748;19.142;2023-04-01T21:44:39;7.90;99.90
9329;DHT22;4703;48.748;19.142;2023-04-01T21:47:36;7.80;99.90
9329;DHT22;4703;48.748;19.142;2023-04-01T21:50:42;7.70;99.90
9329;DHT22;4703;48.748;19.142;2023-04-01T22:02:38;7.50;99.90
9329;DHT22;4703;48.748;19.142;2023-04-01T22:05:33;7.50;99.90
9329;DHT22;4703;48.748;19.142;2023-04-01T22:08:26;7.50;99.90
9329;DHT22;4703;48.748;19.142;2023-04-01T22:14:07;7.50;99.90
9329;DHT22;4703;48.748;19.142;2023-04-01T22:19:20;9.70;99.90
9329;DHT22;4703;48.748;19.142;2023-04-01T22:24:55;7.30;99.90
9329;DHT22;4703;48.748;19.142;2023-04-01T22:27:46;7.20;99.90
9329;DHT22;4703;48.748;19.142;2023-04-01T22:30:29;7.20;99.90
9329;DHT22;4703;48.748;19.142;2023-04-01T22:33:12;7.10;99.90
9329;DHT22;4703;48.748;19.142;2023-04-01T22:38:58;7.00;99.90
9329;DHT22;4703;48.748;19.142;2023-04-01T22:42:09;7.00;99.90
9329;DHT22;4703;48.748;19.142;2023-04-01T22:45:23;7.00;99.90
9329;DHT22;4703;48.748;19.142;2023-04-01T22:51:01;7.00;99.90
9329;DHT22;4703;48.748;19.142;2023-04-01T22:56:49;6.80;99.90
9329;DHT22;4703;48.748;19.142;2023-04-01T22:59:24;6.80;99.90
9329;DHT22;4703;48.748;19.142;2023-04-01T23:01:59;6.80;99.90
9329;DHT22;4703;48.748;19.142;2023-04-01T23:04:37;6.80;99.90
9329;DHT22;4703;48.748;19.142;2023-04-01T23:10:46;6.80;99.90
9329;DHT22;4703;48.748;19.142;2023-04-01T23:13:24;6.70;99.90
9329;DHT22;4703;48.748;19.142;2023-04-01T23:15:54;6.70;99.90
9329;DHT22;4703;48.748;19.142;2023-04-01T23:27:03;6.40;99.90
9329;DHT22;4703;48.748;19.142;2023-04-01T23:29:35;6.40;99.90
9329;DHT22;4703;48.748;19.142;2023-04-01T23:32:03;6.40;99.90
9329;DHT22;4703;48.748;19.142;2023-04-01T23:34:33;6.40;99.90
9329;DHT22;4703;48.748;19.142;2023-04-01T23:37:09;6.40;99.90
9329;DHT22;4703;48.748;19.142;2023-04-01T23:39:43;9.60;99.90
9329;DHT22;4703;48.748;19.142;2023-04-01T23:44:51;6.40;99.90
9329;DHT22;4703;48.748;19.142;2023-04-01T23:47:31;6.30;99.90
9329;DHT22;4703;48.748;19.142;2023-04-01T23:50:04;6.30;99.90
9329;DHT22;4703;48.748;19.142;2023-04-01T23:52:42;6.20;99.90
9329;DHT22;4703;48.748;19.142;2023-04-01T23:57:38;6.10;99.90
